TimeEST,TemperatureF,Dew PointF,Humidity,Sea Level PressureIn,VisibilityMPH,Wind Direction,Wind SpeedMPH,Gust SpeedMPH,PrecipitationIn,Events,Conditions,WindDirDegrees,DateUTC
12:53 AM,26.1,19.0,75,30.48,10.0,Calm,Calm,-,N/A,,Overcast,0,2013-12-26 05:53:00
1:53 AM,24.1,19.9,84,30.48,10.0,Calm,Calm,-,N/A,,Overcast,0,2013-12-26 06:53:00
2:53 AM,27.0,21.0,78,30.48,10.0,Calm,Calm,-,N/A,,Overcast,0,2013-12-26 07:53:00
3:53 AM,27.0,21.9,81,30.46,10.0,Calm,Calm,-,N/A,,Overcast,0,2013-12-26 08:53:00
4:53 AM,28.9,21.9,75,30.43,10.0,ENE,5.8,-,N/A,,Overcast,70,2013-12-26 09:53:00
5:53 AM,28.9,23.0,78,30.41,10.0,ENE,4.6,-,N/A,,Overcast,70,2013-12-26 10:53:00
6:53 AM,36.0,24.1,62,30.40,10.0,South,12.7,-,N/A,,Overcast,180,2013-12-26 11:53:00
7:53 AM,37.0,24.1,59,30.38,10.0,SSE,16.1,-,N/A,,Overcast,150,2013-12-26 12:53:00
8:53 AM,39.0,27.0,62,30.36,10.0,SSE,16.1,-,N/A,,Scattered Clouds,150,2013-12-26 13:53:00
9:53 AM,42.1,30.0,62,30.34,10.0,SSE,16.1,-,N/A,,Scattered Clouds,150,2013-12-26 14:53:00
10:53 AM,41.0,32.0,70,30.28,10.0,SSE,15.0,-,N/A,,Overcast,150,2013-12-26 15:53:00
11:26 AM,41.0,33.8,76,30.24,8.0,SE,16.1,24.2,0.00,Rain,Light Rain,140,2013-12-26 16:26:00
11:53 AM,39.9,35.1,83,30.22,6.0,SE,12.7,-,0.00,Rain,Light Rain,140,2013-12-26 16:53:00
12:53 PM,39.9,37.0,89,30.17,3.0,SSE,12.7,-,0.09,Rain,Rain,150,2013-12-26 17:53:00
1:53 PM,41.0,39.0,93,30.07,4.0,ESE,16.1,-,0.10,Rain,Light Rain,110,2013-12-26 18:53:00
2:24 PM,41.0,39.2,93,30.03,7.0,East,15.0,-,0.01,Rain,Light Rain,100,2013-12-26 19:24:00
2:53 PM,42.1,39.9,92,30.02,10.0,ESE,12.7,-,0.01,,Overcast,110,2013-12-26 19:53:00
3:18 PM,42.8,39.2,87,30.04,7.0,West,9.2,-,0.02,Rain,Light Rain,280,2013-12-26 20:18:00
3:45 PM,39.2,37.4,93,30.06,10.0,NW,15.0,-,0.02,,Overcast,320,2013-12-26 20:45:00
3:53 PM,39.0,37.0,93,30.06,10.0,NW,15.0,-,0.02,,Overcast,320,2013-12-26 20:53:00
4:53 PM,39.0,37.0,93,30.08,10.0,West,5.8,-,N/A,,Overcast,280,2013-12-26 21:53:00
5:20 PM,39.2,35.6,87,30.10,10.0,WNW,16.1,25.3,N/A,,Overcast,290,2013-12-26 22:20:00
5:53 PM,37.0,32.0,82,30.12,10.0,West,15.0,-,N/A,,Partly Cloudy,280,2013-12-26 22:53:00
6:53 PM,36.0,28.9,76,30.15,10.0,West,13.8,23.0,N/A,,Clear,280,2013-12-26 23:53:00
7:53 PM,34.0,28.0,79,30.18,10.0,WNW,13.8,25.3,N/A,,Clear,290,2013-12-27 00:53:00
8:53 PM,32.0,25.0,75,30.20,10.0,WNW,13.8,-,N/A,,Clear,290,2013-12-27 01:53:00
9:53 PM,32.0,25.0,75,30.21,10.0,WNW,12.7,-,N/A,,Clear,300,2013-12-27 02:53:00
10:53 PM,30.9,24.1,76,30.22,10.0,WNW,10.4,-,N/A,,Clear,290,2013-12-27 03:53:00
11:53 PM,32.0,24.1,73,30.21,10.0,WNW,10.4,-,N/A,,Clear,290,2013-12-27 04:53:00